Time;durP1;ratioP1;P1;durP2;ratioP2;P2;SDS_P1;SDS_P2;PMS_P1;PMS_P2;Temp;Humidity;BMP_temperature;BMP_pressure;BME280_temperature;BME280_humidity;BME280_pressure;Samples;Min_cycle;Max_cycle;Signal;HPM_P1;HPM_P2
2021/01/20 00:01:59;;;;;;;76.00;35.70;;;52.10;1689.60;;;;;;5010796;28;20029;-55
2021/01/20 00:04:24;;;;;;;304.10;133.32;;;76.80;1715.20;;;;;;5010651;28;20053;-55
2021/01/20 00:06:50;;;;;;;123.70;57.80;;;76.80;1715.20;;;;;;5010729;28;20034;-54
2021/01/20 00:09:16;;;;;;;656.40;319.70;;;76.80;1715.20;;;;;;5010502;28;20058;-56
2021/01/20 00:11:42;;;;;;;107.90;50.13;;;76.80;1715.20;;;;;;5009775;28;20046;-54
2021/01/20 00:14:09;;;;;;;308.75;143.60;;;76.90;1689.60;;;;;;5010608;28;20033;-54
2021/01/20 00:16:34;;;;;;;68.38;35.35;;;76.80;1715.20;;;;;;5010620;28;20058;-55
2021/01/20 00:19:00;;;;;;;58.15;31.42;;;76.90;1689.60;;;;;;5010199;28;20061;-55
2021/01/20 00:21:26;;;;;;;22.40;13.52;;;77.10;1664.00;;;;;;5010550;28;20045;-56
2021/01/20 00:23:51;;;;;;;68.40;34.38;;;77.30;1612.80;;;;;;5010515;28;20029;-55
2021/01/20 00:26:17;;;;;;;64.18;36.05;;;77.40;1612.80;;;;;;5010595;28;20045;-57
2021/01/20 00:28:43;;;;;;;39.30;19.20;;;77.50;1612.80;;;;;;5010360;28;20045;-57
2021/01/20 00:31:11;;;;;;;205.35;89.13;;;77.60;1561.60;;;;;;5010461;28;20521;-56
2021/01/20 00:33:36;;;;;;;80.72;35.38;;;77.70;1587.20;;;;;;5010365;28;20034;-55
2021/01/20 00:36:02;;;;;;;60.60;27.92;;;102.50;1536.00;;;;;;5010096;28;20361;-56
2021/01/20 00:38:28;;;;;;;71.32;33.42;;;102.50;1561.60;;;;;;5010655;28;20349;-54
2021/01/20 00:40:54;;;;;;;195.45;110.38;;;102.50;1561.60;;;;;;5010203;28;20433;-53
2021/01/20 00:43:19;;;;;;;136.18;64.18;;;102.40;1612.80;;;;;;5010019;28;20412;-55
2021/01/20 00:45:45;;;;;;;140.77;64.57;;;102.40;1587.20;;;;;;5010354;28;20080;-52
2021/01/20 00:48:11;;;;;;;91.50;43.88;;;102.50;1587.20;;;;;;5009704;28;20057;-54
2021/01/20 00:50:37;;;;;;;188.10;79.03;;;102.50;1612.80;;;;;;5010060;28;20065;-53
2021/01/20 00:53:03;;;;;;;223.98;97.43;;;102.40;1612.80;;;;;;5009871;28;20041;-53
2021/01/20 00:55:29;;;;;;;345.80;155.43;;;102.40;1587.20;;;;;;5012419;28;20056;-53
2021/01/20 00:57:55;;;;;;;154.93;70.60;;;102.50;1561.60;;;;;;5019561;28;20106;-54
2021/01/20 01:00:21;;;;;;;99.50;55.30;;;102.60;1561.60;;;;;;5017372;28;20014;-55
2021/01/20 01:02:48;;;;;;;75.78;35.05;;;102.50;1638.40;;;;;;5018936;28;20467;-53
2021/01/20 01:05:14;;;;;;;200.85;114.78;;;102.50;1612.80;;;;;;5017906;28;20471;-55
2021/01/20 01:07:39;;;;;;;65.07;35.20;;;77.50;1689.60;;;;;;5028307;28;20018;-53
2021/01/20 01:10:06;;;;;;;64.65;36.15;;;77.40;1689.60;;;;;;5019025;28;20096;-54
2021/01/20 01:12:31;;;;;;;53.47;32.72;;;77.30;1715.20;;;;;;5018546;28;20038;-54
2021/01/20 01:14:57;;;;;;;41.47;23.77;;;77.50;1638.40;;;;;;5028450;28;20014;-53
2021/01/20 01:17:23;;;;;;;33.58;17.95;;;77.30;1664.00;;;;;;5019001;28;20483;-53
2021/01/20 01:19:50;;;;;;;40.65;26.15;;;77.50;1612.80;;;;;;5017000;28;20100;-53
2021/01/20 01:22:16;;;;;;;70.93;40.03;;;77.50;1638.40;;;;;;5009877;28;20026;-54
2021/01/20 01:24:42;;;;;;;59.95;31.52;;;77.40;1664.00;;;;;;5012471;28;20104;-54
2021/01/20 01:27:07;;;;;;;80.93;47.50;;;77.40;1638.40;;;;;;5013527;28;20037;-54
2021/01/20 01:29:33;;;;;;;154.63;75.70;;;77.20;1664.00;;;;;;5013186;28;20494;-53
2021/01/20 01:31:59;;;;;;;122.13;63.95;;;76.90;1740.80;;;;;;5013282;28;20384;-55
2021/01/20 01:34:25;;;;;;;144.45;76.20;;;77.00;1740.80;;;;;;5013298;28;20030;-54
2021/01/20 01:36:50;;;;;;;125.63;64.88;;;76.80;1766.40;;;;;;5025446;28;20021;-53
2021/01/20 01:39:16;;;;;;;61.33;31.45;;;52.10;1740.80;;;;;;5032962;28;20494;-53
2021/01/20 01:41:42;;;;;;;123.30;72.60;;;52.00;1740.80;;;;;;5032849;28;20076;-54
2021/01/20 01:44:08;;;;;;;106.43;62.30;;;51.90;1766.40;;;;;;5032993;28;20080;-54
2021/01/20 01:46:34;;;;;;;100.28;56.40;;;52.00;1766.40;;;;;;5032736;28;20033;-53
2021/01/20 01:49:00;;;;;;;95.85;56.78;;;52.00;1766.40;;;;;;5031870;28;20118;-55
2021/01/20 01:51:26;;;;;;;75.25;44.10;;;52.10;1740.80;;;;;;5032777;28;20094;-54
2021/01/20 01:53:53;;;;;;;41.90;25.70;;;52.10;1740.80;;;;;;5032469;28;20108;-54
2021/01/20 01:56:19;;;;;;;37.90;23.58;;;77.00;1689.60;;;;;;5032621;28;20129;-53
2021/01/20 01:58:51;;;;;;;31.83;16.90;;;77.10;1689.60;;;;;;5032908;28;20386;-53
2021/01/20 02:01:18;;;;;;;20.90;12.35;;;77.20;1689.60;;;;;;5032715;28;20049;-54
2021/01/20 02:03:44;;;;;;;26.23;15.40;;;77.40;1664.00;;;;;;5032269;28;20033;-54
2021/01/20 02:06:10;;;;;;;24.20;13.88;;;77.30;1664.00;;;;;;5032356;28;20021;-58
2021/01/20 02:08:36;;;;;;;30.40;17.15;;;77.40;1638.40;;;;;;5032588;28;20026;-52
2021/01/20 02:11:35;;;;;;;27.02;14.63;;;77.50;1664.00;;;;;;5032156;28;20099;-54
2021/01/20 02:14:14;;;;;;;30.95;16.30;;;77.60;1638.40;;;;;;5024965;28;20030;-54
2021/01/20 02:16:51;;;;;;;17.88;11.40;;;77.70;1612.80;;;;;;5032362;28;20025;-57
2021/01/20 02:19:23;;;;;;;35.00;26.25;;;102.40;1612.80;;;;;;5032256;28;20552;-53
2021/01/20 02:22:11;;;;;;;26.75;16.58;;;77.60;1638.40;;;;;;5032367;28;20032;-54
2021/01/20 02:25:22;;;;;;;13.70;9.32;;;77.70;1612.80;;;;;;5032217;28;20032;-54
2021/01/20 02:28:13;;;;;;;10.80;7.93;;;102.40;1587.20;;;;;;5029869;28;20462;-53
2021/01/20 02:30:42;;;;;;;18.65;9.85;;;102.40;1612.80;;;;;;5029809;28;20037;-54
2021/01/20 02:33:09;;;;;;;16.10;10.25;;;102.50;1612.80;;;;;;5029838;28;20041;-54
2021/01/20 02:35:37;;;;;;;17.70;13.68;;;102.80;1561.60;;;;;;5029047;28;20382;-55
2021/01/20 02:38:04;;;;;;;58.95;31.42;;;102.90;1561.60;;;;;;5029634;28;20034;-53
2021/01/20 02:40:33;;;;;;;25.50;14.23;;;102.80;1587.20;;;;;;5029565;28;20036;-54
2021/01/20 02:42:59;;;;;;;22.40;12.70;;;102.80;1612.80;;;;;;5029724;28;20453;-54
2021/01/20 02:45:24;;;;;;;22.90;13.57;;;102.80;1587.20;;;;;;5029770;28;20383;-52
2021/01/20 02:47:52;;;;;;;28.35;18.33;;;102.80;1587.20;;;;;;5029090;28;20053;-54
2021/01/20 02:50:20;;;;;;;67.65;39.55;;;102.80;1612.80;;;;;;5029529;28;20029;-53
2021/01/20 02:53:08;;;;;;;74.78;42.65;;;77.70;1612.80;;;;;;5029413;28;20038;-54
2021/01/20 02:55:35;;;;;;;56.35;31.33;;;77.30;1664.00;;;;;;5021555;28;20515;-54
2021/01/20 02:58:09;;;;;;;58.10;33.72;;;77.00;1715.20;;;;;;5029083;28;20033;-54
2021/01/20 03:00:38;;;;;;;51.00;26.88;;;77.10;1715.20;;;;;;5029332;28;20480;-55
2021/01/20 03:03:07;;;;;;;77.40;42.78;;;77.10;1715.20;;;;;;5029100;28;20034;-54
2021/01/20 03:05:35;;;;;;;95.65;55.40;;;77.10;1740.80;;;;;;5030943;28;20033;-54
2021/01/20 03:08:01;;;;;;;212.95;102.30;;;77.10;1740.80;;;;;;5031263;28;20128;-54
2021/01/20 03:10:27;;;;;;;100.90;59.78;;;77.30;1715.20;;;;;;5031311;28;20018;-55
2021/01/20 03:12:53;;;;;;;162.90;97.60;;;77.40;1715.20;;;;;;5031116;28;20503;-55
2021/01/20 03:15:28;;;;;;;74.55;46.28;;;77.40;1715.20;;;;;;5031164;28;20112;-54
2021/01/20 03:17:54;;;;;;;97.60;55.95;;;77.50;1689.60;;;;;;5030927;28;20447;-54
2021/01/20 03:20:19;;;;;;;174.02;96.45;;;77.40;1740.80;;;;;;5031087;28;20112;-55
2021/01/20 03:22:45;;;;;;;121.53;70.43;;;77.30;1740.80;;;;;;5031125;28;20383;-54
2021/01/20 03:25:11;;;;;;;78.68;46.70;;;77.40;1740.80;;;;;;5030988;28;20025;-54
2021/01/20 03:27:37;;;;;;;83.63;47.30;;;77.40;1740.80;;;;;;5030818;28;20383;-54
2021/01/20 03:30:07;;;;;;;87.35;49.67;;;77.70;1740.80;;;;;;5030786;28;20090;-53
2021/01/20 03:32:32;;;;;;;118.95;72.05;;;77.70;1715.20;;;;;;5030408;28;20041;-54
2021/01/20 03:34:58;;;;;;;125.97;76.03;;;77.70;1740.80;;;;;;5030942;28;20034;-52
2021/01/20 03:37:24;;;;;;;231.85;130.50;;;77.70;1740.80;;;;;;5030935;28;20029;-54
2021/01/20 03:39:50;;;;;;;138.23;83.88;;;77.20;1792.00;;;;;;5030671;28;20021;-53
2021/01/20 03:42:16;;;;;;;127.28;72.28;;;76.90;1792.00;;;;;;5030533;28;20033;-54
2021/01/20 03:44:41;;;;;;;182.20;104.60;;;77.20;1766.40;;;;;;5030359;28;20029;-54
2021/01/20 03:47:07;;;;;;;211.40;121.28;;;77.30;1817.60;;;;;;5029518;28;20491;-54
2021/01/20 03:49:33;;;;;;;151.55;82.93;;;77.40;1792.00;;;;;;5030237;28;20136;-54
2021/01/20 03:51:58;;;;;;;122.07;73.50;;;77.00;1792.00;;;;;;5030477;28;20029;-54
2021/01/20 03:54:24;;;;;;;127.53;71.97;;;52.00;1792.00;;;;;;5030753;28;20080;-53
2021/01/20 03:56:50;;;;;;;123.03;72.85;;;52.00;1817.60;;;;;;5030103;28;20037;-54
2021/01/20 03:59:16;;;;;;;138.98;80.75;;;52.00;1817.60;;;;;;5030571;28;20022;-54
2021/01/20 04:01:41;;;;;;;188.52;106.20;;;76.90;1817.60;;;;;;5027123;28;20475;-53
2021/01/20 04:04:07;;;;;;;175.80;100.75;;;77.10;1817.60;;;;;;5030358;28;20032;-54
2021/01/20 04:06:33;;;;;;;183.45;108.03;;;77.30;1766.40;;;;;;5030276;28;20067;-54
2021/01/20 04:08:58;;;;;;;201.15;120.35;;;77.20;1766.40;;;;;;5030536;28;20468;-53
2021/01/20 04:11:24;;;;;;;132.48;79.70;;;77.20;1766.40;;;;;;5027009;28;20034;-55
2021/01/20 04:13:50;;;;;;;145.35;84.85;;;77.10;1792.00;;;;;;5030109;28;20117;-55
2021/01/20 04:16:16;;;;;;;139.95;82.05;;;77.30;1792.00;;;;;;5029795;28;20022;-54
2021/01/20 04:18:44;;;;;;;214.13;129.35;;;77.30;1817.60;;;;;;5029861;28;20033;-54
2021/01/20 04:21:11;;;;;;;213.02;127.32;;;77.00;1766.40;;;;;;5029961;28;20029;-56
2021/01/20 04:23:37;;;;;;;207.35;126.88;;;76.90;1792.00;;;;;;5030158;28;20033;-54
2021/01/20 04:26:07;;;;;;;226.50;135.73;;;77.20;1766.40;;;;;;5029993;28;20040;-55
2021/01/20 04:28:33;;;;;;;207.70;128.05;;;77.10;1766.40;;;;;;5029833;28;20036;-55
2021/01/20 04:30:59;;;;;;;208.05;120.10;;;77.20;1740.80;;;;;;5030106;28;20038;-55
2021/01/20 04:33:25;;;;;;;230.30;140.18;;;77.50;1715.20;;;;;;5029653;28;20033;-55
2021/01/20 04:35:52;;;;;;;181.52;108.30;;;77.70;1715.20;;;;;;5029491;28;20489;-54
2021/01/20 04:38:18;;;;;;;193.27;114.38;;;77.60;1715.20;;;;;;5029756;28;20463;-54
2021/01/20 04:40:43;;;;;;;169.30;103.43;;;77.70;1715.20;;;;;;5029620;28;20601;-54
2021/01/20 04:43:09;;;;;;;135.05;78.20;;;102.50;1715.20;;;;;;5029733;28;20048;-55
2021/01/20 04:45:35;;;;;;;92.85;57.55;;;102.60;1689.60;;;;;;5029810;28;20108;-54
2021/01/20 04:48:03;;;;;;;90.85;50.08;;;102.60;1715.20;;;;;;5029347;28;20128;-54
2021/01/20 04:50:31;;;;;;;90.47;50.25;;;102.80;1689.60;;;;;;5029760;28;20041;-54
2021/01/20 04:53:04;;;;;;;79.93;43.55;;;102.90;1689.60;;;;;;5029846;28;20038;-54
2021/01/20 04:55:32;;;;;;;63.83;38.92;;;103.00;1715.20;;;;;;5029590;28;20052;-54
2021/01/20 04:57:58;;;;;;;66.45;40.55;;;103.00;1740.80;;;;;;5030254;28;20029;-54
2021/01/20 05:00:25;;;;;;;47.90;30.48;;;103.00;1689.60;;;;;;5033794;28;20106;-54
2021/01/20 05:02:53;;;;;;;48.58;33.20;;;102.90;1689.60;;;;;;5033545;28;20029;-54
2021/01/20 05:05:20;;;;;;;79.07;49.65;;;102.90;1715.20;;;;;;5033672;28;20091;-54
2021/01/20 05:07:47;;;;;;;52.80;32.47;;;103.00;1715.20;;;;;;5033617;28;20494;-54
2021/01/20 05:10:13;;;;;;;62.33;35.65;;;102.80;1715.20;;;;;;5033522;28;20060;-55
2021/01/20 05:12:41;;;;;;;130.02;80.60;;;102.60;1689.60;;;;;;5033410;28;20034;-54
2021/01/20 05:15:14;;;;;;;94.70;59.97;;;102.60;1689.60;;;;;;5033490;28;20100;-54
2021/01/20 05:18:01;;;;;;;56.53;36.92;;;102.60;1715.20;;;;;;5033534;28;20029;-56
2021/01/20 05:20:37;;;;;;;70.95;42.58;;;102.80;1689.60;;;;;;5033263;28;20120;-54
2021/01/20 05:23:03;;;;;;;39.47;24.45;;;102.90;1689.60;;;;;;5033270;28;20110;-55
2021/01/20 05:25:33;;;;;;;57.05;34.95;;;103.10;1664.00;;;;;;5033015;28;20049;-54
2021/01/20 05:28:14;;;;;;;48.15;32.88;;;103.00;1766.40;;;;;;5033130;28;20361;-56
2021/01/20 05:30:47;;;;;;;46.03;29.77;;;103.00;1689.60;;;;;;5032754;28;20017;-55
2021/01/20 05:33:15;;;;;;;52.92;36.22;;;103.00;1715.20;;;;;;5033020;28;20033;-55
2021/01/20 05:35:45;;;;;;;54.10;34.40;;;103.20;1689.60;;;;;;5032952;28;20044;-55
2021/01/20 05:38:11;;;;;;;51.63;34.78;;;103.10;1715.20;;;;;;5032758;28;20034;-55
2021/01/20 05:40:38;;;;;;;36.95;24.30;;;103.20;1664.00;;;;;;5032949;28;20022;-54
2021/01/20 05:43:04;;;;;;;54.67;36.22;;;103.20;1664.00;;;;;;5032798;28;20147;-57
2021/01/20 05:45:30;;;;;;;101.93;59.88;;;103.00;1740.80;;;;;;5032927;28;20038;-56
2021/01/20 05:48:10;;;;;;;73.65;45.10;;;102.70;1792.00;;;;;;5024712;28;20522;-55
2021/01/20 05:50:37;;;;;;;77.00;47.55;;;102.80;1740.80;;;;;;5031120;28;20033;-53
2021/01/20 05:53:08;;;;;;;73.53;58.47;;;103.00;1740.80;;;;;;5032529;28;20034;-54
2021/01/20 05:55:35;;;;;;;63.88;40.13;;;102.70;1766.40;;;;;;5032398;28;20032;-54
2021/01/20 05:58:01;;;;;;;54.33;32.72;;;102.80;1740.80;;;;;;5032366;28;20574;-55
2021/01/20 06:00:28;;;;;;;43.97;27.23;;;102.90;1715.20;;;;;;5032903;28;20056;-55
2021/01/20 06:02:57;;;;;;;45.28;29.75;;;102.80;1740.80;;;;;;5032229;28;20059;-55
2021/01/20 06:05:27;;;;;;;43.72;29.90;;;102.80;1740.80;;;;;;5032348;28;20049;-55
2021/01/20 06:07:53;;;;;;;63.67;40.90;;;102.90;1740.80;;;;;;5031872;28;20101;-55
2021/01/20 06:10:21;;;;;;;65.03;40.60;;;102.90;1740.80;;;;;;5021718;28;20410;-55
2021/01/20 06:12:51;;;;;;;83.13;46.58;;;102.80;1766.40;;;;;;5022624;28;20073;-55
2021/01/20 06:15:17;;;;;;;54.67;38.53;;;102.80;1766.40;;;;;;5029587;28;20104;-55
2021/01/20 06:17:46;;;;;;;36.47;24.77;;;102.80;1740.80;;;;;;5031747;28;20234;-55
2021/01/20 06:20:14;;;;;;;56.50;39.00;;;102.90;1740.80;;;;;;5023491;28;20030;-54
2021/01/20 06:22:52;;;;;;;42.35;29.75;;;103.00;1689.60;;;;;;5031421;28;20036;-54
2021/01/20 06:25:32;;;;;;;57.85;37.47;;;102.80;1766.40;;;;;;5030770;28;20479;-54
2021/01/20 06:28:06;;;;;;;107.93;72.85;;;102.80;1740.80;;;;;;5030786;28;20033;-54
2021/01/20 06:30:36;;;;;;;75.60;49.70;;;102.80;1766.40;;;;;;5029031;28;20025;-54
2021/01/20 06:33:10;;;;;;;60.53;35.92;;;102.90;1740.80;;;;;;5020349;28;20037;-56
2021/01/20 06:35:37;;;;;;;44.00;30.30;;;102.90;1740.80;;;;;;5031826;28;20029;-53
2021/01/20 06:38:03;;;;;;;63.25;37.20;;;102.80;1740.80;;;;;;5031851;28;20033;-54
2021/01/20 06:40:32;;;;;;;100.78;61.33;;;103.00;1740.80;;;;;;5031408;28;20412;-55
2021/01/20 06:42:57;;;;;;;91.13;64.68;;;102.80;1740.80;;;;;;5031296;28;20495;-55
2021/01/20 06:45:25;;;;;;;172.02;103.60;;;102.80;1766.40;;;;;;5031224;28;20102;-53
2021/01/20 06:47:59;;;;;;;126.05;79.35;;;102.80;1740.80;;;;;;5014392;28;20511;-54
2021/01/20 06:50:33;;;;;;;311.55;199.18;;;103.00;1740.80;;;;;;5011943;28;20028;-55
2021/01/20 06:53:04;;;;;;;284.77;187.43;;;102.70;1792.00;;;;;;5014137;28;20049;-53
2021/01/20 06:55:39;;;;;;;293.33;184.40;;;102.70;1792.00;;;;;;5028499;28;20026;-55
2021/01/20 06:58:21;;;;;;;260.92;177.52;;;102.40;1792.00;;;;;;5030911;28;20104;-54
2021/01/20 07:00:59;;;;;;;282.45;181.55;;;102.80;1740.80;;;;;;5031010;28;20021;-54
2021/01/20 07:03:44;;;;;;;313.00;195.93;;;102.90;1740.80;;;;;;5031740;28;20026;-54
2021/01/20 07:06:34;;;;;;;472.38;312.65;;;103.10;1715.20;;;;;;5031246;28;20395;-55
2021/01/20 07:09:09;;;;;;;388.02;253.27;;;102.90;1740.80;;;;;;5031104;28;20076;-55
2021/01/20 07:11:56;;;;;;;323.77;211.02;;;103.10;1740.80;;;;;;5031294;28;20033;-54
2021/01/20 07:14:31;;;;;;;344.70;218.63;;;103.10;1740.80;;;;;;5030886;28;20375;-54
2021/01/20 07:16:57;;;;;;;401.52;266.58;;;103.30;1715.20;;;;;;5031165;28;20025;-54
2021/01/20 07:19:26;;;;;;;347.58;230.93;;;103.30;1689.60;;;;;;5030925;28;20030;-53
2021/01/20 07:21:53;;;;;;;354.08;252.77;;;128.10;1689.60;;;;;;5030546;28;20383;-53
2021/01/20 07:24:20;;;;;;;279.27;191.15;;;128.30;1689.60;;;;;;5017051;28;20109;-55
2021/01/20 07:26:46;;;;;;;227.93;152.80;;;128.50;1638.40;;;;;;5011072;28;20077;-54
2021/01/20 07:29:17;;;;;;;338.55;233.70;;;128.60;1638.40;;;;;;5011034;28;20503;-55
2021/01/20 07:31:46;;;;;;;373.27;251.02;;;128.90;1612.80;;;;;;5028339;28;20073;-54
2021/01/20 07:34:12;;;;;;;316.05;225.73;;;153.70;1612.80;;;;;;5030864;28;20026;-54
2021/01/20 07:36:38;;;;;;;332.17;246.88;;;153.80;1612.80;;;;;;5030865;28;20040;-53
2021/01/20 07:39:22;;;;;;;255.65;180.20;;;153.90;1587.20;;;;;;5030844;28;20029;-54
2021/01/20 07:41:56;;;;;;;239.57;160.20;;;154.10;1587.20;;;;;;5030267;28;20086;-53
2021/01/20 07:44:23;;;;;;;147.00;103.07;;;154.30;1536.00;;;;;;5018913;28;20379;-55
2021/01/20 07:47:02;;;;;;;127.15;84.95;;;154.50;1561.60;;;;;;5021341;28;20030;-54
2021/01/20 07:49:28;;;;;;;103.32;69.68;;;179.30;1561.60;;;;;;5026047;28;20103;-54
2021/01/20 07:52:08;;;;;;;103.13;66.20;;;179.50;1536.00;;;;;;5026427;28;20049;-54
2021/01/20 07:54:35;;;;;;;107.80;75.07;;;179.70;1536.00;;;;;;5027865;28;20509;-54
2021/01/20 07:57:00;;;;;;;83.95;58.20;;;204.80;1484.80;;;;;;5013705;28;20117;-54
2021/01/20 07:59:26;;;;;;;129.02;88.80;;;205.10;1459.20;;;;;;5022263;28;20108;-54
2021/01/20 08:01:52;;;;;;;99.75;71.72;;;205.50;1433.60;;;;;;5029652;28;20383;-54
2021/01/20 08:04:26;;;;;;;93.82;67.53;;;205.50;1433.60;;;;;;5028769;28;20425;-55
2021/01/20 08:06:52;;;;;;;174.52;129.73;;;205.20;1433.60;;;;;;5026115;28;20061;-55
2021/01/20 08:09:20;;;;;;;231.25;163.93;;;205.00;1484.80;;;;;;5029494;28;20486;-54
2021/01/20 08:11:47;;;;;;;376.35;263.90;;;180.10;1510.40;;;;;;5010418;28;20095;-55
2021/01/20 08:14:14;;;;;;;339.00;234.18;;;179.90;1484.80;;;;;;5010587;28;20038;-55
2021/01/20 08:16:40;;;;;;;268.75;189.82;;;180.00;1484.80;;;;;;5010748;28;20104;-54
2021/01/20 08:19:06;;;;;;;212.73;146.93;;;204.90;1459.20;;;;;;5010385;28;20115;-54
2021/01/20 08:21:35;;;;;;;155.40;111.60;;;205.30;1433.60;;;;;;5010400;28;20041;-55
2021/01/20 08:24:05;;;;;;;167.73;120.60;;;205.30;1433.60;;;;;;5010309;28;20029;-54
2021/01/20 08:26:32;;;;;;;132.43;98.70;;;205.60;1433.60;;;;;;5010065;28;20034;-54
2021/01/20 08:29:01;;;;;;;129.43;95.22;;;230.80;1331.20;;;;;;5010581;28;20033;-55
2021/01/20 08:31:27;;;;;;;409.50;270.75;;;230.70;1331.20;;;;;;5010567;28;20034;-54
2021/01/20 08:34:22;;;;;;;318.63;210.48;;;230.60;1356.80;;;;;;5023861;28;20033;-54
2021/01/20 08:36:54;;;;;;;138.50;88.13;;;230.60;1356.80;;;;;;5031493;28;20541;-53
2021/01/20 08:39:21;;;;;;;152.65;105.82;;;230.50;1331.20;;;;;;5030901;28;20106;-55
2021/01/20 08:42:26;;;;;;;189.38;131.60;;;230.40;1382.40;;;;;;5033828;28;20025;-58
2021/01/20 08:45:17;;;;;;;120.13;76.53;;;230.70;1331.20;;;;;;5032402;28;20083;-57
2021/01/20 08:47:56;;;;;;;629.85;456.63;;;230.60;1356.80;;;;;;5030690;28;20052;-52
2021/01/20 08:50:28;;;;;;;1055.43;737.30;;;205.70;1433.60;;;;;;5030925;28;20064;-53
2021/01/20 08:52:55;;;;;;;879.88;637.42;;;205.20;1536.00;;;;;;5033119;28;20467;-53
2021/01/20 08:55:27;;;;;;;767.42;563.67;;;230.40;1459.20;;;;;;5030678;28;20017;-54
2021/01/20 08:58:19;;;;;;;610.42;458.30;;;230.50;1459.20;;;;;;5033112;28;20368;-58
2021/01/20 09:00:46;;;;;;;570.85;434.05;;;230.70;1433.60;;;;;;5033148;28;20031;-56
2021/01/20 09:03:17;;;;;;;324.55;230.48;;;230.60;1408.00;;;;;;5022648;28;20026;-53
2021/01/20 09:05:44;;;;;;;300.83;204.98;;;230.90;1356.80;;;;;;5030868;28;20099;-53
2021/01/20 09:08:10;;;;;;;232.85;163.30;;;230.90;1356.80;;;;;;5032964;28;20030;-55
2021/01/20 09:10:36;;;;;;;336.35;236.77;;;231.00;1356.80;;;;;;5033310;28;20030;-56
2021/01/20 09:13:02;;;;;;;217.18;150.13;;;231.00;1382.40;;;;;;5033145;28;20493;-56
2021/01/20 09:15:28;;;;;;;251.32;180.13;;;231.10;1356.80;;;;;;5033476;28;20028;-57
2021/01/20 09:17:54;;;;;;;264.33;188.57;;;231.20;1356.80;;;;;;5030317;28;20026;-56
2021/01/20 09:20:19;;;;;;;251.32;182.55;;;231.20;1382.40;;;;;;5032026;28;20033;-56
2021/01/20 09:22:46;;;;;;;233.63;169.50;;;231.30;1382.40;;;;;;5032055;28;20014;-54
2021/01/20 09:25:12;;;;;;;168.15;119.38;;;256.00;1382.40;;;;;;5032498;28;20037;-54
2021/01/20 09:27:38;;;;;;;176.07;125.07;;;256.20;1331.20;;;;;;5032921;28;20021;-55
2021/01/20 09:30:05;;;;;;;156.88;109.35;;;256.30;1331.20;;;;;;5022241;28;20029;-54
2021/01/20 09:32:35;;;;;;;172.82;107.85;;;256.40;1331.20;;;;;;5023456;28;20033;-56
2021/01/20 09:35:11;;;;;;;417.88;307.65;;;256.60;1305.60;;;;;;5018253;28;20029;-56
2021/01/20 09:37:38;;;;;;;467.77;342.70;;;256.30;1305.60;;;;;;5018612;28;20075;-53
2021/01/20 09:40:07;;;;;;;479.45;346.20;;;256.50;1331.20;;;;;;5022595;28;20040;-54
2021/01/20 09:42:33;;;;;;;469.70;335.17;;;256.70;1331.20;;;;;;5032424;28;20033;-56
2021/01/20 09:44:59;;;;;;;442.67;317.58;;;256.80;1331.20;;;;;;5032172;28;20093;-56
2021/01/20 09:47:25;;;;;;;461.17;331.05;;;256.90;1331.20;;;;;;5032479;28;20113;-54
2021/01/20 09:49:50;;;;;;;462.77;331.15;;;281.60;1356.80;;;;;;5032334;28;20033;-56
2021/01/20 09:52:17;;;;;;;436.08;324.92;;;281.60;1331.20;;;;;;5032807;28;20147;-56
2021/01/20 09:54:44;;;;;;;607.58;457.92;;;281.60;1331.20;;;;;;5032536;28;20056;-55
2021/01/20 09:57:10;;;;;;;661.08;512.10;;;281.60;1356.80;;;;;;5032408;28;20095;-57
2021/01/20 09:59:36;;;;;;;596.63;463.38;;;281.60;1356.80;;;;;;5032525;28;20422;-57
2021/01/20 10:02:02;;;;;;;844.85;645.50;;;281.60;1356.80;;;;;;5032341;28;20079;-54
2021/01/20 10:04:27;;;;;;;784.70;600.63;;;281.60;1356.80;;;;;;5032554;28;20026;-54
2021/01/20 10:06:53;;;;;;;608.20;468.48;;;281.60;1382.40;;;;;;5032353;28;20116;-54
2021/01/20 10:09:20;;;;;;;584.55;446.92;;;281.90;1356.80;;;;;;5032327;28;20036;-54
2021/01/20 10:11:46;;;;;;;608.08;476.77;;;282.00;1356.80;;;;;;5032428;28;20065;-54
2021/01/20 10:14:11;;;;;;;809.63;628.65;;;281.60;1356.80;;;;;;5032164;28;20056;-55
2021/01/20 10:16:37;;;;;;;899.53;672.90;;;281.60;1356.80;;;;;;5032293;28;20411;-54
2021/01/20 10:19:03;;;;;;;596.67;474.75;;;281.60;1331.20;;;;;;5031928;28;20065;-55
2021/01/20 10:21:28;;;;;;;515.47;414.48;;;282.00;1280.00;;;;;;5032356;28;20034;-54
2021/01/20 10:23:54;;;;;;;381.33;292.48;;;282.10;1331.20;;;;;;5031916;28;20033;-54
2021/01/20 10:26:25;;;;;;;251.52;196.52;;;282.30;1280.00;;;;;;5032017;28;20029;-54
2021/01/20 10:28:51;;;;;;;399.02;293.33;;;282.10;1280.00;;;;;;5031987;28;20021;-54
2021/01/20 10:31:17;;;;;;;81.38;58.03;;;281.90;1305.60;;;;;;5031751;28;20163;-54
2021/01/20 10:33:42;;;;;;;68.93;48.78;;;281.80;1203.20;;;;;;5031736;28;20036;-54
2021/01/20 10:36:08;;;;;;;77.57;56.75;;;281.70;1203.20;;;;;;5031993;28;20033;-54
2021/01/20 10:38:34;;;;;;;181.52;139.95;;;281.80;1203.20;;;;;;5031575;28;20030;-55
2021/01/20 10:40:59;;;;;;;336.63;253.40;;;282.10;1228.80;;;;;;5031715;28;20040;-55
2021/01/20 10:43:25;;;;;;;336.83;251.00;;;282.30;1254.40;;;;;;5032083;28;20120;-54
2021/01/20 10:45:51;;;;;;;276.50;218.18;;;282.50;1228.80;;;;;;5031763;28;20064;-55
2021/01/20 10:48:16;;;;;;;215.60;164.30;;;282.50;1228.80;;;;;;5031673;28;20048;-54
2021/01/20 10:50:42;;;;;;;168.63;131.88;;;307.20;1254.40;;;;;;5031509;28;20109;-54
2021/01/20 10:53:08;;;;;;;146.07;110.05;;;307.60;1228.80;;;;;;5031639;28;20471;-54
2021/01/20 10:55:33;;;;;;;317.48;232.65;;;307.60;1228.80;;;;;;5030768;28;20068;-54
2021/01/20 10:57:59;;;;;;;225.68;176.88;;;307.60;1203.20;;;;;;5031266;28;20021;-55
2021/01/20 11:00:25;;;;;;;225.70;168.98;;;307.60;1254.40;;;;;;5031582;28;20071;-54
2021/01/20 11:02:51;;;;;;;213.55;158.23;;;307.60;1228.80;;;;;;5031384;28;20379;-54
2021/01/20 11:05:16;;;;;;;400.55;318.10;;;307.70;1228.80;;;;;;5031478;28;20025;-54
2021/01/20 11:07:42;;;;;;;1192.35;831.22;;;307.50;1254.40;;;;;;5031138;28;20427;-55
2021/01/20 11:10:09;;;;;;;1086.65;788.20;;;307.30;1305.60;;;;;;5031140;28;20026;-55
2021/01/20 11:12:34;;;;;;;953.13;724.28;;;307.40;1305.60;;;;;;5031249;28;20038;-55
2021/01/20 11:15:00;;;;;;;919.83;702.78;;;307.50;1305.60;;;;;;5031278;28;20044;-54
2021/01/20 11:17:26;;;;;;;1095.00;793.60;;;307.70;1305.60;;;;;;5031247;28;20034;-54
2021/01/20 11:19:52;;;;;;;930.92;720.05;;;307.90;1280.00;;;;;;5030817;28;20482;-54
2021/01/20 11:22:18;;;;;;;973.70;735.90;;;308.10;1254.40;;;;;;5030982;28;20109;-54
2021/01/20 11:24:43;;;;;;;809.97;645.70;;;308.10;1254.40;;;;;;5030877;28;20049;-55
2021/01/20 11:27:09;;;;;;;687.78;558.63;;;332.90;1280.00;;;;;;5030891;28;20033;-54
2021/01/20 11:29:35;;;;;;;349.85;268.73;;;333.00;1254.40;;;;;;5024780;28;20033;-58
2021/01/20 11:32:00;;;;;;;891.22;698.30;;;333.10;1228.80;;;;;;5031154;28;20098;-59
2021/01/20 11:34:26;;;;;;;979.65;754.38;;;332.90;1254.40;;;;;;5031098;28;20029;-56
2021/01/20 11:36:52;;;;;;;977.35;741.92;;;307.50;1280.00;;;;;;5030456;28;20060;-58
2021/01/20 11:39:17;;;;;;;1006.60;756.47;;;282.20;1331.20;;;;;;5031010;28;20026;-56
2021/01/20 11:41:43;;;;;;;971.92;741.38;;;282.50;1305.60;;;;;;5030662;28;20026;-57
2021/01/20 11:44:09;;;;;;;906.05;712.60;;;307.30;1331.20;;;;;;5030757;28;20029;-57
2021/01/20 11:46:34;;;;;;;959.20;725.95;;;307.60;1331.20;;;;;;5030709;28;20395;-57
2021/01/20 11:49:09;;;;;;;765.80;603.92;;;307.80;1305.60;;;;;;5030448;28;20518;-58
2021/01/20 11:51:35;;;;;;;803.58;635.25;;;307.70;1228.80;;;;;;5030151;28;20063;-57
2021/01/20 11:54:01;;;;;;;866.00;676.35;;;307.60;1254.40;;;;;;5030527;28;20030;-58
2021/01/20 11:56:27;;;;;;;904.65;691.58;;;307.80;1280.00;;;;;;5030455;28;20029;-57
2021/01/20 11:58:52;;;;;;;809.72;635.47;;;307.50;1254.40;;;;;;5022720;28;20017;-57